Time;durP1;ratioP1;P1;durP2;ratioP2;P2;SDS_P1;SDS_P2;PMS_P1;PMS_P2;Temp;Humidity;BMP_temperature;BMP_pressure;BME280_temperature;BME280_humidity;BME280_pressure;Samples;Min_cycle;Max_cycle;Signal;HPM_P1;HPM_P2
2021/05/07 00:00:27;;;;;;;1.08;0.60;;;20.90;41.50;;;;;;5037394;28;20060;-63
2021/05/07 00:02:53;;;;;;;0.63;0.50;;;20.90;41.60;;;;;;5036655;28;20063;-63
2021/05/07 00:05:19;;;;;;;1.25;0.70;;;20.90;41.50;;;;;;5027985;28;20108;-62
2021/05/07 00:07:44;;;;;;;0.85;0.60;;;20.80;41.50;;;;;;5043608;28;20179;-63
2021/05/07 00:10:13;;;;;;;1.08;0.80;;;20.90;41.50;;;;;;5045383;28;20039;-62
2021/05/07 00:12:39;;;;;;;0.93;0.60;;;20.80;41.50;;;;;;5040213;28;20081;-63
2021/05/07 00:15:05;;;;;;;1.15;0.68;;;20.90;41.50;;;;;;5047414;28;20429;-63
2021/05/07 00:17:30;;;;;;;0.60;0.60;;;20.90;41.50;;;;;;5036753;28;20029;-62
2021/05/07 00:19:56;;;;;;;0.95;0.60;;;20.90;41.50;;;;;;5039588;28;20448;-63
2021/05/07 00:22:21;;;;;;;1.23;0.70;;;20.90;41.50;;;;;;5045210;28;20110;-62
2021/05/07 00:24:47;;;;;;;0.80;0.60;;;20.80;41.50;;;;;;5042476;28;20025;-62
2021/05/07 00:27:16;;;;;;;0.95;0.65;;;20.80;41.50;;;;;;5044228;28;20045;-63
2021/05/07 00:29:42;;;;;;;0.63;0.50;;;20.80;41.50;;;;;;5046031;28;20033;-63
2021/05/07 00:32:08;;;;;;;1.00;0.80;;;20.80;41.50;;;;;;5046506;28;20033;-62
2021/05/07 00:34:33;;;;;;;0.85;0.65;;;20.80;41.50;;;;;;5046112;28;20044;-63
2021/05/07 00:36:59;;;;;;;0.82;0.60;;;20.80;41.50;;;;;;5036117;28;20022;-61
2021/05/07 00:39:25;;;;;;;0.95;0.60;;;20.80;41.50;;;;;;5051730;28;20032;-62
2021/05/07 00:41:50;;;;;;;0.60;0.60;;;20.80;41.50;;;;;;5051914;28;20417;-62
2021/05/07 00:44:16;;;;;;;0.60;0.60;;;20.80;41.50;;;;;;5045331;28;20789;-63
2021/05/07 00:46:43;;;;;;;0.43;0.40;;;20.80;41.40;;;;;;5046108;28;20041;-62
2021/05/07 00:49:10;;;;;;;0.65;0.55;;;20.80;41.40;;;;;;5044224;28;20021;-62
2021/05/07 00:51:36;;;;;;;0.65;0.50;;;20.80;41.50;;;;;;5046119;28;20060;-63
2021/05/07 00:54:01;;;;;;;1.45;0.60;;;20.80;41.50;;;;;;5045272;28;20427;-63
2021/05/07 00:56:27;;;;;;;0.50;0.50;;;20.80;41.50;;;;;;5040737;28;20108;-62
2021/05/07 00:58:53;;;;;;;1.20;0.57;;;20.80;41.40;;;;;;5035919;28;20143;-62
2021/05/07 01:01:19;;;;;;;1.02;0.60;;;20.80;41.50;;;;;;5038529;28;20117;-63
2021/05/07 01:03:45;;;;;;;1.15;0.52;;;20.80;41.50;;;;;;5047618;28;20032;-62
2021/05/07 01:06:10;;;;;;;0.90;0.60;;;20.80;41.50;;;;;;5048449;28;20452;-62
2021/05/07 01:08:36;;;;;;;0.80;0.50;;;20.70;41.40;;;;;;5039569;28;20617;-62
2021/05/07 01:11:02;;;;;;;0.98;0.63;;;20.70;41.40;;;;;;5043817;28;20037;-62
2021/05/07 01:13:28;;;;;;;0.45;0.43;;;20.80;42.00;;;;;;5036610;28;20029;-63
2021/05/07 01:15:53;;;;;;;1.10;0.70;;;20.70;41.40;;;;;;5044094;28;20340;-63
2021/05/07 01:18:19;;;;;;;1.02;0.60;;;20.70;41.40;;;;;;5038440;28;20040;-63
2021/05/07 01:20:45;;;;;;;1.27;0.60;;;20.70;41.40;;;;;;5040335;28;20127;-62
2021/05/07 01:23:11;;;;;;;1.02;0.70;;;20.70;41.40;;;;;;5036707;28;20033;-62
2021/05/07 01:25:39;;;;;;;0.47;0.47;;;20.70;41.40;;;;;;5037010;28;20750;-63
2021/05/07 01:28:07;;;;;;;1.00;0.57;;;20.70;41.40;;;;;;5047914;28;20025;-62
2021/05/07 01:30:36;;;;;;;0.57;0.50;;;20.70;41.40;;;;;;5047078;28;20132;-61
2021/05/07 01:33:02;;;;;;;1.10;0.60;;;20.70;41.40;;;;;;5037260;28;20683;-63
2021/05/07 01:35:29;;;;;;;0.50;0.45;;;20.70;41.40;;;;;;5045187;28;20024;-61
2021/05/07 01:38:01;;;;;;;0.60;0.47;;;20.70;41.40;;;;;;5044028;28;20029;-61
2021/05/07 01:40:30;;;;;;;0.80;0.60;;;20.70;41.40;;;;;;5045555;28;20028;-62
2021/05/07 01:42:55;;;;;;;0.95;0.70;;;20.70;41.40;;;;;;5041239;28;20025;-62
2021/05/07 01:45:30;;;;;;;0.52;0.50;;;20.70;41.40;;;;;;5030013;28;20109;-63
2021/05/07 01:47:56;;;;;;;0.70;0.70;;;20.70;41.40;;;;;;5047383;28;20157;-62
2021/05/07 01:50:24;;;;;;;0.80;0.50;;;20.70;41.40;;;;;;5047026;28;20025;-62
2021/05/07 01:52:50;;;;;;;0.65;0.50;;;20.70;41.40;;;;;;5039075;28;20064;-62
2021/05/07 01:55:18;;;;;;;1.40;0.60;;;20.70;41.40;;;;;;5029012;28;20040;-62
2021/05/07 01:57:45;;;;;;;0.73;0.50;;;20.70;41.40;;;;;;5037308;28;20030;-62
2021/05/07 02:00:13;;;;;;;0.52;0.40;;;20.70;41.40;;;;;;5044455;28;20036;-62
2021/05/07 02:02:41;;;;;;;0.88;0.60;;;20.70;41.40;;;;;;5037738;28;20114;-61
2021/05/07 02:05:08;;;;;;;0.93;0.60;;;20.60;41.30;;;;;;5042838;28;20033;-62
2021/05/07 02:07:33;;;;;;;0.73;0.47;;;20.60;41.30;;;;;;5033074;28;20036;-62
2021/05/07 02:09:59;;;;;;;1.05;0.50;;;20.70;41.40;;;;;;5043661;28;20101;-61
2021/05/07 02:12:25;;;;;;;0.70;0.50;;;20.70;41.40;;;;;;5044716;28;20021;-62
2021/05/07 02:14:53;;;;;;;0.60;0.50;;;20.70;41.40;;;;;;5046749;28;20439;-62
2021/05/07 02:17:18;;;;;;;1.00;0.50;;;20.60;41.30;;;;;;5040957;28;20544;-61
2021/05/07 02:19:44;;;;;;;1.00;0.60;;;20.60;41.40;;;;;;5045461;28;20025;-61
2021/05/07 02:22:10;;;;;;;0.50;0.50;;;20.70;41.40;;;;;;5039496;28;20041;-61
2021/05/07 02:24:36;;;;;;;0.57;0.50;;;20.60;41.30;;;;;;5045703;28;20060;-62
2021/05/07 02:27:02;;;;;;;1.05;0.70;;;20.60;41.40;;;;;;5036292;28;20044;-62
2021/05/07 02:29:28;;;;;;;0.57;0.50;;;20.60;41.40;;;;;;5030031;28;20050;-62
2021/05/07 02:31:54;;;;;;;0.55;0.50;;;20.60;41.30;;;;;;5044089;28;20033;-61
2021/05/07 02:34:19;;;;;;;0.77;0.50;;;20.60;41.30;;;;;;5045453;28;20036;-62
2021/05/07 02:36:45;;;;;;;0.95;0.50;;;20.60;41.40;;;;;;5035155;28;20850;-62
2021/05/07 02:39:11;;;;;;;0.57;0.50;;;20.60;41.40;;;;;;5033373;28;20040;-61
2021/05/07 02:41:37;;;;;;;0.40;0.32;;;20.60;41.40;;;;;;5043899;28;20104;-62
2021/05/07 02:44:06;;;;;;;0.52;0.50;;;20.60;41.30;;;;;;5046237;28;20052;-61
2021/05/07 02:46:36;;;;;;;0.60;0.60;;;20.60;41.40;;;;;;5040928;28;20033;-62
2021/05/07 02:49:04;;;;;;;0.40;0.40;;;20.60;41.40;;;;;;5025801;28;20150;-62
2021/05/07 02:51:30;;;;;;;0.68;0.65;;;20.60;41.40;;;;;;5031276;28;20100;-61
2021/05/07 02:53:56;;;;;;;0.63;0.40;;;20.60;41.40;;;;;;5041204;28;20029;-63
2021/05/07 02:56:22;;;;;;;0.65;0.50;;;20.60;41.40;;;;;;5039200;28;20029;-62
2021/05/07 02:58:48;;;;;;;0.75;0.40;;;20.60;41.40;;;;;;5046700;28;20031;-62
2021/05/07 03:01:14;;;;;;;0.60;0.57;;;20.60;41.40;;;;;;5035866;28;20056;-63
2021/05/07 03:03:39;;;;;;;0.40;0.40;;;20.60;41.40;;;;;;5030777;28;20086;-62
2021/05/07 03:06:05;;;;;;;0.40;0.40;;;20.60;41.40;;;;;;5029816;28;20029;-62
2021/05/07 03:08:31;;;;;;;0.90;0.50;;;20.50;41.30;;;;;;5045063;28;20032;-62
2021/05/07 03:10:56;;;;;;;0.60;0.50;;;20.50;41.40;;;;;;5044949;28;20097;-63
2021/05/07 03:13:22;;;;;;;0.63;0.47;;;20.60;41.40;;;;;;5044636;28;20029;-63
2021/05/07 03:15:48;;;;;;;0.50;0.50;;;20.50;41.30;;;;;;5044874;28;20108;-63
2021/05/07 03:18:19;;;;;;;0.40;0.40;;;20.50;41.30;;;;;;5036941;28;20041;-62
2021/05/07 03:20:45;;;;;;;0.70;0.52;;;20.50;41.30;;;;;;5043105;28;20116;-63
2021/05/07 03:23:12;;;;;;;0.75;0.63;;;20.50;41.40;;;;;;5043191;28;20032;-63
2021/05/07 03:25:38;;;;;;;0.40;0.40;;;20.50;41.30;;;;;;5033888;28;20097;-62
2021/05/07 03:28:04;;;;;;;0.52;0.50;;;20.50;41.30;;;;;;5040840;28;20101;-62
2021/05/07 03:30:32;;;;;;;1.13;0.40;;;20.50;41.40;;;;;;5044841;28;20037;-63
2021/05/07 03:32:59;;;;;;;0.50;0.50;;;20.50;41.40;;;;;;5034479;28;20544;-62
2021/05/07 03:35:24;;;;;;;0.45;0.45;;;20.50;41.40;;;;;;5045318;28;20420;-63
2021/05/07 03:37:50;;;;;;;0.40;0.40;;;20.50;41.40;;;;;;5028901;28;20083;-63
2021/05/07 03:40:16;;;;;;;0.40;0.40;;;20.50;41.30;;;;;;5044818;28;20045;-62
2021/05/07 03:42:44;;;;;;;0.40;0.40;;;20.50;41.30;;;;;;5034930;28;20046;-63
2021/05/07 03:45:10;;;;;;;0.68;0.50;;;20.50;41.40;;;;;;5035674;28;20029;-62
2021/05/07 03:47:36;;;;;;;1.00;0.50;;;20.50;41.40;;;;;;5048213;28;20040;-63
2021/05/07 03:50:02;;;;;;;0.50;0.50;;;20.50;41.40;;;;;;5046630;28;20028;-62
2021/05/07 03:52:28;;;;;;;0.40;0.40;;;20.50;41.40;;;;;;5048490;28;20601;-63
2021/05/07 03:54:53;;;;;;;0.60;0.60;;;20.50;41.40;;;;;;5045259;28;20098;-63
2021/05/07 03:57:19;;;;;;;0.60;0.50;;;20.50;41.40;;;;;;5050040;28;20128;-63
2021/05/07 03:59:45;;;;;;;0.50;0.50;;;20.50;41.40;;;;;;5049068;28;20031;-63
2021/05/07 04:02:10;;;;;;;0.50;0.50;;;20.40;41.30;;;;;;5046336;28;20044;-63
2021/05/07 04:04:38;;;;;;;0.50;0.50;;;20.50;41.90;;;;;;5046662;28;20052;-63
2021/05/07 04:07:03;;;;;;;0.40;0.40;;;20.40;41.30;;;;;;5048698;28;20052;-62
2021/05/07 04:09:34;;;;;;;0.40;0.40;;;20.50;41.40;;;;;;5034354;28;20124;-63
2021/05/07 04:12:12;;;;;;;0.40;0.40;;;20.40;41.40;;;;;;5048712;28;20032;-62
2021/05/07 04:14:38;;;;;;;0.40;0.40;;;20.50;41.40;;;;;;5048904;28;20040;-62
2021/05/07 04:17:03;;;;;;;0.40;0.40;;;20.40;41.40;;;;;;5049508;28;20371;-63
2021/05/07 04:19:29;;;;;;;0.60;0.60;;;20.40;41.40;;;;;;5046535;28;20061;-63
2021/05/07 04:21:55;;;;;;;0.43;0.43;;;20.40;41.40;;;;;;5048170;28;20037;-63
2021/05/07 04:24:21;;;;;;;0.40;0.40;;;20.40;41.40;;;;;;5049201;28;20033;-63
2021/05/07 04:26:46;;;;;;;0.50;0.45;;;20.40;41.40;;;;;;5044277;28;20026;-64
2021/05/07 04:29:12;;;;;;;0.45;0.40;;;20.40;41.90;;;;;;5048584;28;20025;-64
2021/05/07 04:31:37;;;;;;;0.30;0.30;;;20.40;41.90;;;;;;5045298;28;20124;-63
2021/05/07 04:34:06;;;;;;;0.40;0.40;;;20.40;41.40;;;;;;5046291;28;20040;-64
2021/05/07 04:36:32;;;;;;;0.57;0.50;;;20.40;41.40;;;;;;5039528;28;20048;-64
2021/05/07 04:38:58;;;;;;;0.40;0.40;;;20.40;41.40;;;;;;5045264;28;20491;-63
2021/05/07 04:41:24;;;;;;;0.40;0.40;;;20.40;41.40;;;;;;5035124;28;20037;-64
2021/05/07 04:43:50;;;;;;;0.73;0.52;;;20.40;41.40;;;;;;5043422;28;20677;-64
2021/05/07 04:46:16;;;;;;;0.47;0.40;;;20.40;41.40;;;;;;5031583;28;20604;-63
2021/05/07 04:48:41;;;;;;;0.47;0.40;;;20.40;41.40;;;;;;5041090;28;20025;-64
2021/05/07 04:51:07;;;;;;;0.70;0.50;;;20.40;41.40;;;;;;5047393;28;20036;-64
2021/05/07 04:53:32;;;;;;;0.50;0.50;;;20.40;41.40;;;;;;5039669;28;20090;-63
2021/05/07 04:55:58;;;;;;;0.50;0.50;;;20.40;41.40;;;;;;5034958;28;20026;-64
2021/05/07 04:58:24;;;;;;;0.68;0.50;;;20.40;41.40;;;;;;5032217;28;20079;-64
2021/05/07 05:00:49;;;;;;;0.50;0.50;;;20.40;41.50;;;;;;5040106;28;20599;-63
2021/05/07 05:03:15;;;;;;;0.50;0.50;;;20.40;41.50;;;;;;5045173;28;20086;-64
2021/05/07 05:05:40;;;;;;;0.65;0.50;;;20.40;41.40;;;;;;5031423;28;20178;-64
2021/05/07 05:08:06;;;;;;;0.50;0.50;;;20.40;41.40;;;;;;5042656;28;20033;-64
2021/05/07 05:10:32;;;;;;;0.40;0.38;;;20.30;41.40;;;;;;5040477;28;20017;-64
2021/05/07 05:12:57;;;;;;;0.40;0.40;;;20.40;41.50;;;;;;5038886;28;20027;-63
2021/05/07 05:15:24;;;;;;;0.50;0.50;;;20.30;41.40;;;;;;5040817;28;20103;-64
2021/05/07 05:17:50;;;;;;;0.95;0.50;;;20.30;41.50;;;;;;5042298;28;20025;-65
2021/05/07 05:20:16;;;;;;;0.40;0.40;;;20.30;41.50;;;;;;5035202;28;20492;-64
2021/05/07 05:22:42;;;;;;;1.00;0.47;;;20.40;41.50;;;;;;5040445;28;20025;-64
2021/05/07 05:25:08;;;;;;;0.40;0.40;;;20.40;41.50;;;;;;5041243;28;20608;-64
2021/05/07 05:27:35;;;;;;;0.93;0.55;;;20.30;41.50;;;;;;5039508;28;20028;-64
2021/05/07 05:30:03;;;;;;;0.40;0.40;;;20.30;42.10;;;;;;5037455;28;20061;-64
2021/05/07 05:32:28;;;;;;;1.00;0.45;;;20.30;41.60;;;;;;5034635;28;20069;-64
2021/05/07 05:34:54;;;;;;;0.65;0.40;;;20.30;41.60;;;;;;5033015;28;20076;-65
2021/05/07 05:37:20;;;;;;;0.52;0.40;;;20.30;41.60;;;;;;5038323;28;20024;-63
2021/05/07 05:39:46;;;;;;;0.40;0.40;;;20.30;41.60;;;;;;5031155;28;20057;-65
2021/05/07 05:42:12;;;;;;;0.40;0.40;;;20.40;41.60;;;;;;5042267;28;20041;-63
2021/05/07 05:44:38;;;;;;;0.40;0.40;;;20.30;41.60;;;;;;5038278;28;20071;-65
2021/05/07 05:47:03;;;;;;;0.50;0.43;;;20.30;41.60;;;;;;5038922;28;20060;-64
2021/05/07 05:49:29;;;;;;;0.95;0.50;;;20.30;41.60;;;;;;5035197;28;20040;-64
2021/05/07 05:51:55;;;;;;;1.08;0.50;;;20.30;41.70;;;;;;5033185;28;20443;-63
2021/05/07 05:54:21;;;;;;;1.58;0.43;;;20.30;41.70;;;;;;5035449;28;20120;-63
2021/05/07 05:56:47;;;;;;;0.63;0.50;;;20.30;41.70;;;;;;5038436;28;20033;-63
2021/05/07 05:59:13;;;;;;;0.63;0.57;;;20.30;41.70;;;;;;5037906;28;20039;-64
2021/05/07 06:01:38;;;;;;;0.77;0.60;;;20.30;41.70;;;;;;5037066;28;20440;-63
2021/05/07 06:04:04;;;;;;;1.48;0.60;;;20.30;41.80;;;;;;5037413;28;20087;-63
2021/05/07 06:06:30;;;;;;;0.82;0.50;;;20.30;41.80;;;;;;5039487;28;20041;-62
2021/05/07 06:08:55;;;;;;;1.50;0.60;;;20.30;41.90;;;;;;5036066;28;20481;-63
2021/05/07 06:11:21;;;;;;;0.50;0.45;;;20.30;41.90;;;;;;5038445;28;20135;-63
2021/05/07 06:13:46;;;;;;;1.55;0.60;;;20.30;42.00;;;;;;5037741;28;20488;-64
2021/05/07 06:16:12;;;;;;;1.27;0.47;;;20.30;42.00;;;;;;5036274;28;20365;-63
2021/05/07 06:18:37;;;;;;;1.90;0.60;;;20.30;42.00;;;;;;5042637;28;20098;-63
2021/05/07 06:21:04;;;;;;;1.48;0.60;;;20.30;42.00;;;;;;5046540;28;20033;-63
2021/05/07 06:23:29;;;;;;;1.23;0.60;;;20.30;42.10;;;;;;5046032;28;20060;-63
2021/05/07 06:25:55;;;;;;;0.73;0.63;;;20.30;42.10;;;;;;5044828;28;20729;-63
2021/05/07 06:28:21;;;;;;;1.05;0.60;;;20.30;42.10;;;;;;5034827;28;20052;-63
2021/05/07 06:30:46;;;;;;;0.82;0.50;;;20.30;42.10;;;;;;5040542;28;20041;-63
2021/05/07 06:33:12;;;;;;;1.20;0.60;;;20.30;42.10;;;;;;5036856;28;20040;-63
2021/05/07 06:35:38;;;;;;;1.30;0.63;;;20.30;42.20;;;;;;5042192;28;20029;-63
2021/05/07 06:38:10;;;;;;;2.08;0.60;;;20.30;42.20;;;;;;5032918;28;20392;-63
2021/05/07 06:40:36;;;;;;;1.67;0.70;;;20.30;42.20;;;;;;5038093;28;20044;-62
2021/05/07 06:43:03;;;;;;;2.28;0.93;;;20.30;42.20;;;;;;5043477;28;20174;-61
2021/05/07 06:45:28;;;;;;;2.97;0.68;;;20.20;42.20;;;;;;5038895;28;20104;-62
2021/05/07 06:47:54;;;;;;;1.58;0.70;;;20.30;42.20;;;;;;5044877;28;20577;-63
2021/05/07 06:50:21;;;;;;;2.15;0.63;;;20.30;42.30;;;;;;5041660;28;20055;-63
2021/05/07 06:52:47;;;;;;;2.30;0.60;;;20.30;42.30;;;;;;5043103;28;20463;-63
2021/05/07 06:55:13;;;;;;;2.00;0.75;;;20.30;42.30;;;;;;5034590;28;20021;-61
2021/05/07 06:57:39;;;;;;;1.55;0.80;;;20.30;42.30;;;;;;5039666;28;20371;-61
2021/05/07 07:00:07;;;;;;;2.90;0.80;;;20.30;42.30;;;;;;5038106;28;20054;-61
2021/05/07 07:02:33;;;;;;;1.27;0.65;;;20.30;42.30;;;;;;5034314;28;20037;-63
2021/05/07 07:04:59;;;;;;;2.47;0.73;;;20.30;42.30;;;;;;5041330;28;20461;-62
2021/05/07 07:07:26;;;;;;;1.80;0.70;;;20.20;42.20;;;;;;5037203;28;20040;-63
2021/05/07 07:09:52;;;;;;;4.63;0.90;;;20.30;42.80;;;;;;5032086;28;20083;-62
2021/05/07 07:12:18;;;;;;;1.85;0.70;;;20.30;42.30;;;;;;5033444;28;20059;-63
2021/05/07 07:14:43;;;;;;;3.72;0.80;;;20.30;42.30;;;;;;5043604;28;20048;-63
2021/05/07 07:17:09;;;;;;;1.17;0.70;;;20.20;42.30;;;;;;5041783;28;20733;-62
2021/05/07 07:19:35;;;;;;;1.95;0.85;;;20.20;42.30;;;;;;5042637;28;20091;-63
2021/05/07 07:22:08;;;;;;;1.85;0.90;;;20.30;42.40;;;;;;5042365;28;20434;-62
2021/05/07 07:24:33;;;;;;;4.38;1.00;;;20.20;42.40;;;;;;5040658;28;20037;-62
2021/05/07 07:26:59;;;;;;;2.55;0.90;;;20.30;42.40;;;;;;5045845;28;20025;-63
2021/05/07 07:29:25;;;;;;;3.05;0.80;;;20.20;42.40;;;;;;5043250;28;20120;-63
2021/05/07 07:31:52;;;;;;;2.63;0.80;;;20.30;42.50;;;;;;5043677;28;20033;-63
2021/05/07 07:34:19;;;;;;;2.53;0.90;;;20.30;42.60;;;;;;5040023;28;20017;-64
2021/05/07 07:36:45;;;;;;;2.25;0.90;;;20.30;42.60;;;;;;5041432;28;20026;-64
2021/05/07 07:39:16;;;;;;;3.05;0.90;;;20.20;42.60;;;;;;5046263;28;20463;-65
2021/05/07 07:41:42;;;;;;;4.97;1.27;;;20.30;42.70;;;;;;5041081;28;20068;-60
2021/05/07 07:44:08;;;;;;;4.03;0.90;;;20.20;42.70;;;;;;5031828;28;20037;-65
2021/05/07 07:46:34;;;;;;;1.98;0.80;;;20.20;42.70;;;;;;5038949;28;20052;-64
2021/05/07 07:48:59;;;;;;;3.85;0.90;;;20.30;42.80;;;;;;5045269;28;20818;-65
2021/05/07 07:51:34;;;;;;;2.28;0.80;;;20.40;42.80;;;;;;5043888;28;20029;-65
2021/05/07 07:54:00;;;;;;;1.60;0.73;;;20.40;42.70;;;;;;5039438;28;20365;-65
2021/05/07 07:56:26;;;;;;;2.70;0.85;;;20.40;42.70;;;;;;5038260;28;20136;-65
2021/05/07 07:58:51;;;;;;;3.42;0.90;;;20.50;42.70;;;;;;5048560;28;20094;-65
2021/05/07 08:01:17;;;;;;;2.63;0.80;;;20.50;42.70;;;;;;5059861;28;20046;-65
2021/05/07 08:03:43;;;;;;;2.25;0.80;;;20.50;42.60;;;;;;5043170;28;20091;-63
2021/05/07 08:06:09;;;;;;;2.28;0.80;;;20.50;42.60;;;;;;5050972;28;20134;-63
2021/05/07 08:08:35;;;;;;;2.13;0.90;;;20.60;42.60;;;;;;5059228;28;20529;-63
2021/05/07 08:11:00;;;;;;;1.73;0.70;;;20.60;42.50;;;;;;5046322;28;20052;-63
2021/05/07 08:13:26;;;;;;;1.67;0.70;;;20.70;42.50;;;;;;5044141;28;20024;-63
2021/05/07 08:15:52;;;;;;;3.05;1.00;;;20.70;42.50;;;;;;5046589;28;20033;-64
2021/05/07 08:18:17;;;;;;;5.00;1.00;;;20.70;42.40;;;;;;5046466;28;20093;-63
2021/05/07 08:20:43;;;;;;;4.35;1.00;;;20.70;42.40;;;;;;5047410;28;20043;-63
2021/05/07 08:23:09;;;;;;;3.80;1.05;;;20.70;42.30;;;;;;5044505;28;20574;-63
2021/05/07 08:25:34;;;;;;;3.85;0.90;;;20.80;42.40;;;;;;5028649;28;20135;-64
2021/05/07 08:28:00;;;;;;;2.35;0.90;;;20.80;42.30;;;;;;5051528;28;20033;-63
2021/05/07 08:30:26;;;;;;;2.88;0.90;;;20.80;42.30;;;;;;5040279;28;20512;-63
2021/05/07 08:32:51;;;;;;;3.60;1.08;;;20.80;42.30;;;;;;5037089;28;20025;-63
2021/05/07 08:35:17;;;;;;;3.78;1.02;;;20.90;42.30;;;;;;5032241;28;20415;-63
2021/05/07 08:37:43;;;;;;;3.75;1.10;;;20.90;42.20;;;;;;5031874;28;20048;-63
2021/05/07 08:40:14;;;;;;;3.00;0.90;;;20.90;42.20;;;;;;5032821;28;20052;-64
2021/05/07 08:42:40;;;;;;;2.65;1.00;;;20.90;42.20;;;;;;5037327;28;20029;-64
2021/05/07 08:45:07;;;;;;;4.45;1.20;;;20.90;42.40;;;;;;5035792;28;20047;-64
2021/05/07 08:47:34;;;;;;;1.70;0.80;;;21.00;42.30;;;;;;5037359;28;20037;-63
2021/05/07 08:50:01;;;;;;;2.80;0.95;;;21.10;42.20;;;;;;5043406;28;20036;-63
2021/05/07 08:52:27;;;;;;;2.80;1.10;;;21.20;42.10;;;;;;5039741;28;20262;-62
2021/05/07 08:54:53;;;;;;;2.97;0.85;;;21.30;41.90;;;;;;5035186;28;20056;-63
2021/05/07 08:57:19;;;;;;;1.80;0.90;;;21.40;41.70;;;;;;5031938;28;20671;-62
2021/05/07 08:59:45;;;;;;;4.22;1.05;;;21.40;41.60;;;;;;5033459;28;20037;-63
2021/05/07 09:02:10;;;;;;;2.80;1.08;;;21.40;41.60;;;;;;5030265;28;20037;-63
2021/05/07 09:04:36;;;;;;;3.20;1.08;;;21.40;41.70;;;;;;5033989;28;20133;-63
2021/05/07 09:07:11;;;;;;;3.60;1.00;;;21.30;41.70;;;;;;5036200;28;20421;-63
2021/05/07 09:09:52;;;;;;;2.97;1.30;;;21.30;41.70;;;;;;5033746;28;20037;-63
2021/05/07 09:12:37;;;;;;;3.03;1.40;;;21.40;41.70;;;;;;5036262;28;20091;-63
2021/05/07 09:15:05;;;;;;;3.13;1.15;;;21.40;41.70;;;;;;5035619;28;20095;-63
2021/05/07 09:17:33;;;;;;;3.65;1.10;;;21.40;41.70;;;;;;5034569;28;20116;-63
2021/05/07 09:20:11;;;;;;;2.60;1.17;;;21.40;41.70;;;;;;5037545;28;20116;-63
2021/05/07 09:22:38;;;;;;;2.17;1.00;;;21.40;41.70;;;;;;5033693;28;20492;-62
2021/05/07 09:25:09;;;;;;;2.03;0.90;;;21.40;42.30;;;;;;5039070;28;20036;-62
2021/05/07 09:27:35;;;;;;;2.55;1.02;;;21.40;41.80;;;;;;5038224;28;20321;-62
2021/05/07 09:30:02;;;;;;;4.65;1.20;;;21.40;41.90;;;;;;5039497;28;20059;-54
2021/05/07 09:32:33;;;;;;;4.28;1.25;;;21.40;41.90;;;;;;5039183;28;20075;-57
2021/05/07 09:35:12;;;;;;;3.75;1.45;;;21.40;41.90;;;;;;5032414;28;20071;-51
2021/05/07 09:37:39;;;;;;;4.22;1.45;;;21.40;42.00;;;;;;5028255;28;20130;-53
2021/05/07 09:40:16;;;;;;;3.17;1.08;;;21.40;42.00;;;;;;5028731;28;20043;-55
2021/05/07 09:42:43;;;;;;;2.53;1.10;;;21.40;42.00;;;;;;5029779;28;20444;-56
2021/05/07 09:45:21;;;;;;;4.35;1.20;;;21.40;42.10;;;;;;5034401;28;20126;-54
2021/05/07 09:47:47;;;;;;;3.88;1.25;;;21.40;42.10;;;;;;5031139;28;20047;-56
2021/05/07 09:50:14;;;;;;;2.90;1.10;;;21.40;42.10;;;;;;5036439;28;20442;-54
2021/05/07 09:52:39;;;;;;;2.65;1.10;;;21.40;42.10;;;;;;5042327;28;20534;-56
2021/05/07 09:55:07;;;;;;;2.00;1.00;;;21.40;42.10;;;;;;5034449;28;20052;-56
2021/05/07 09:57:34;;;;;;;2.38;1.10;;;21.30;42.10;;;;;;5043201;28;20036;-53
2021/05/07 10:00:01;;;;;;;2.45;1.20;;;21.40;42.10;;;;;;5040576;28;20179;-55
2021/05/07 10:02:26;;;;;;;2.72;1.10;;;21.30;42.00;;;;;;5040540;28;20040;-57
2021/05/07 10:04:53;;;;;;;2.30;1.15;;;21.30;42.00;;;;;;5037692;28;20034;-54
2021/05/07 10:07:18;;;;;;;2.55;1.10;;;21.40;42.00;;;;;;5043833;28;20037;-57
2021/05/07 10:09:45;;;;;;;3.47;1.25;;;21.40;42.00;;;;;;5043944;28;20036;-53
2021/05/07 10:12:14;;;;;;;3.00;1.20;;;21.30;41.90;;;;;;5035216;28;20029;-56
2021/05/07 10:14:43;;;;;;;3.38;1.20;;;21.30;41.90;;;;;;5029608;28;20207;-59
2021/05/07 10:17:10;;;;;;;2.30;0.93;;;21.40;41.90;;;;;;5031965;28;20040;-54
2021/05/07 10:19:44;;;;;;;2.83;1.10;;;21.40;41.90;;;;;;5041320;28;20052;-57
2021/05/07 10:22:11;;;;;;;3.50;1.23;;;21.40;41.80;;;;;;5038241;28;20040;-55
2021/05/07 10:24:38;;;;;;;2.47;1.08;;;21.40;41.80;;;;;;5035727;28;20077;-52
2021/05/07 10:27:15;;;;;;;3.20;1.05;;;21.40;41.80;;;;;;5032838;28;20105;-54
2021/05/07 10:29:51;;;;;;;1.75;1.00;;;21.40;41.80;;;;;;5040299;28;20059;-55
2021/05/07 10:32:17;;;;;;;2.92;1.30;;;21.40;41.80;;;;;;5029635;28;20045;-53
2021/05/07 10:34:43;;;;;;;3.40;1.30;;;21.40;41.70;;;;;;5032341;28;20025;-52
2021/05/07 10:37:13;;;;;;;1.88;1.00;;;21.40;41.70;;;;;;5034205;28;20108;-52
2021/05/07 10:39:51;;;;;;;3.00;1.00;;;21.40;41.70;;;;;;5035897;28;20487;-58
2021/05/07 10:42:17;;;;;;;2.42;1.00;;;21.40;41.70;;;;;;5042041;28;20033;-52
2021/05/07 10:44:43;;;;;;;2.78;0.98;;;21.40;41.70;;;;;;5031626;28;20385;-56
2021/05/07 10:47:10;;;;;;;2.28;1.00;;;21.40;41.80;;;;;;5038430;28;20143;-55
2021/05/07 10:49:46;;;;;;;2.33;1.10;;;21.40;41.80;;;;;;5033960;28;20032;-51
2021/05/07 10:52:14;;;;;;;2.95;1.00;;;21.40;41.70;;;;;;5034283;28;20017;-54
2021/05/07 10:54:46;;;;;;;2.38;1.00;;;21.40;41.80;;;;;;5042798;28;20029;-57
2021/05/07 10:57:22;;;;;;;2.78;1.13;;;21.40;41.80;;;;;;5040409;28;20103;-51
2021/05/07 10:59:52;;;;;;;2.30;1.08;;;21.40;41.80;;;;;;5035571;28;20036;-49
2021/05/07 11:02:17;;;;;;;2.55;0.90;;;21.40;41.80;;;;;;5028581;28;20101;-58
2021/05/07 11:04:45;;;;;;;1.50;0.90;;;21.40;41.70;;;;;;5036746;28;20542;-57
2021/05/07 11:07:10;;;;;;;2.38;1.10;;;21.40;41.60;;;;;;5030837;28;20048;-54
2021/05/07 11:09:36;;;;;;;2.17;1.00;;;21.40;41.60;;;;;;5030664;28;20037;-51
2021/05/07 11:12:03;;;;;;;1.92;1.10;;;21.40;41.50;;;;;;5034467;28;20033;-50
2021/05/07 11:14:34;;;;;;;3.00;1.00;;;21.50;41.40;;;;;;5039365;28;20025;-54
2021/05/07 11:17:00;;;;;;;2.40;1.10;;;21.50;41.30;;;;;;5036785;28;20053;-54
2021/05/07 11:19:35;;;;;;;2.20;1.23;;;21.50;41.30;;;;;;5031483;28;20094;-54
2021/05/07 11:22:08;;;;;;;2.85;1.10;;;21.60;41.40;;;;;;5037393;28;20041;-53
2021/05/07 11:24:42;;;;;;;2.13;1.08;;;21.60;41.40;;;;;;5034185;28;20045;-51
2021/05/07 11:27:36;;;;;;;2.35;1.00;;;21.60;41.40;;;;;;5042130;28;20037;-54
2021/05/07 11:30:02;;;;;;;3.55;1.00;;;21.60;41.30;;;;;;5036236;28;20476;-54
2021/05/07 11:32:28;;;;;;;2.13;1.10;;;21.60;41.30;;;;;;5035192;28;20037;-52
2021/05/07 11:35:08;;;;;;;2.95;1.33;;;21.70;41.40;;;;;;5036112;28;20043;-55
2021/05/07 11:37:34;;;;;;;3.20;1.10;;;21.70;41.30;;;;;;5030190;28;20902;-56
2021/05/07 11:40:01;;;;;;;3.22;0.95;;;21.70;41.40;;;;;;5035360;28;20025;-56
2021/05/07 11:42:38;;;;;;;2.67;1.13;;;21.70;41.30;;;;;;5037118;28;20028;-56
2021/05/07 11:45:09;;;;;;;2.78;1.00;;;21.70;41.30;;;;;;5034507;28;20028;-55
2021/05/07 11:47:37;;;;;;;1.63;0.90;;;21.70;41.30;;;;;;5036507;28;20447;-52
2021/05/07 11:50:05;;;;;;;3.50;1.10;;;21.70;41.20;;;;;;5030399;28;20033;-51
2021/05/07 11:52:36;;;;;;;3.17;1.05;;;21.70;41.20;;;;;;5034315;28;20034;-56
2021/05/07 11:55:04;;;;;;;1.98;1.08;;;21.80;41.20;;;;;;5031448;28;20707;-57
2021/05/07 11:57:31;;;;;;;3.88;1.15;;;21.80;41.20;;;;;;5034410;28;20025;-61
2021/05/07 11:59:58;;;;;;;4.50;1.23;;;21.80;41.10;;;;;;5031298;28;20037;-59
2021/05/07 12:02:32;;;;;;;1.88;1.00;;;21.80;41.70;;;;;;5028913;28;20123;-58
2021/05/07 12:04:59;;;;;;;2.15;1.08;;;21.80;41.10;;;;;;5033670;28;20154;-52
2021/05/07 12:07:28;;;;;;;2.15;0.90;;;21.80;41.10;;;;;;5031139;28;20047;-56
2021/05/07 12:09:55;;;;;;;2.67;1.20;;;21.80;41.10;;;;;;5036131;28;20130;-60
2021/05/07 12:12:22;;;;;;;2.38;1.20;;;21.80;41.20;;;;;;5036798;28;20657;-57
2021/05/07 12:14:49;;;;;;;2.78;1.10;;;21.80;41.10;;;;;;5038206;28;20082;-56
2021/05/07 12:17:19;;;;;;;1.70;0.90;;;21.80;41.10;;;;;;5043993;28;20048;-57
2021/05/07 12:19:57;;;;;;;2.42;1.00;;;21.80;41.10;;;;;;5043692;28;20026;-54
2021/05/07 12:22:22;;;;;;;3.80;1.38;;;21.80;41.10;;;;;;5039790;28;20017;-58
2021/05/07 12:24:48;;;;;;;2.22;1.00;;;21.80;41.10;;;;;;5043241;28;20051;-58
2021/05/07 12:27:28;;;;;;;3.63;1.10;;;21.80;41.00;;;;;;5055529;28;20040;-55
2021/05/07 12:29:54;;;;;;;2.78;1.27;;;21.80;41.00;;;;;;5050604;28;20040;-54
2021/05/07 12:32:23;;;;;;;2.20;1.00;;;21.80;41.00;;;;;;5045931;28;20066;-61
2021/05/07 12:35:00;;;;;;;3.20;1.00;;;21.80;41.00;;;;;;5041087;28;20029;-62
2021/05/07 12:37:39;;;;;;;1.30;0.82;;;21.80;41.00;;;;;;5042323;28;20047;-60
2021/05/07 12:40:06;;;;;;;3.88;1.20;;;21.80;41.00;;;;;;5041490;28;20063;-58
2021/05/07 12:42:32;;;;;;;2.85;1.15;;;21.80;41.00;;;;;;5037168;28;20025;-60
2021/05/07 12:44:57;;;;;;;3.22;1.00;;;21.80;40.90;;;;;;5035040;28;20040;-55
2021/05/07 12:47:23;;;;;;;2.35;1.13;;;21.80;41.40;;;;;;5046339;28;20163;-54